Time;durP1;ratioP1;P1;durP2;ratioP2;P2;SDS_P1;SDS_P2;PMS_P1;PMS_P2;Temp;Humidity;BMP_temperature;BMP_pressure;BME280_temperature;BME280_humidity;BME280_pressure;Samples;Min_cycle;Max_cycle;Signal;HPM_P1;HPM_P2
2021/08/01 00:01:38;;;;;;;7.00;6.80;;;24.70;96.00;;;;;;3535501;40;20463;-61
2021/08/01 00:04:06;;;;;;;6.60;6.40;;;24.70;96.00;;;;;;3534897;40;20493;-61
2021/08/01 00:06:33;;;;;;;6.27;6.10;;;24.70;96.00;;;;;;3525364;40;20474;-61
2021/08/01 00:09:00;;;;;;;6.90;6.70;;;24.70;96.00;;;;;;3534584;40;20677;-61
2021/08/01 00:11:28;;;;;;;6.70;6.50;;;24.70;96.00;;;;;;3535514;40;20462;-60
2021/08/01 00:13:56;;;;;;;6.87;6.67;;;24.70;96.00;;;;;;3525214;40;20754;-61
2021/08/01 00:16:24;;;;;;;6.90;6.70;;;24.70;96.00;;;;;;3534988;40;20727;-61
2021/08/01 00:18:51;;;;;;;6.50;6.30;;;24.70;96.00;;;;;;3533062;40;20494;-61
2021/08/01 00:21:19;;;;;;;6.93;6.73;;;24.70;96.00;;;;;;3534559;40;20688;-61
2021/08/01 00:23:46;;;;;;;6.43;6.23;;;24.70;96.00;;;;;;3536069;40;20478;-61
2021/08/01 00:26:13;;;;;;;6.80;6.60;;;24.70;96.00;;;;;;3536283;40;20458;-60
2021/08/01 00:28:42;;;;;;;6.70;6.50;;;24.70;96.00;;;;;;3536605;40;20462;-61
2021/08/01 00:31:09;;;;;;;6.80;6.50;;;24.70;96.00;;;;;;3536287;40;20466;-61
2021/08/01 00:33:36;;;;;;;6.57;6.37;;;24.70;96.00;;;;;;3527159;40;20451;-61
2021/08/01 00:36:03;;;;;;;6.57;6.37;;;24.70;96.00;;;;;;3536532;40;20502;-61
2021/08/01 00:38:30;;;;;;;6.33;6.13;;;24.70;96.00;;;;;;3534902;40;20471;-61
2021/08/01 00:41:03;;;;;;;6.10;6.00;;;24.70;96.00;;;;;;3535808;40;20853;-61
2021/08/01 00:43:32;;;;;;;6.47;6.27;;;24.70;96.00;;;;;;3536661;40;20839;-62
2021/08/01 00:46:01;;;;;;;6.90;6.70;;;24.70;96.00;;;;;;3537057;40;20505;-60
2021/08/01 00:48:29;;;;;;;6.60;6.40;;;24.70;96.00;;;;;;3526927;40;20462;-60
2021/08/01 00:50:56;;;;;;;7.00;6.80;;;24.70;96.00;;;;;;3535892;40;20485;-61
2021/08/01 00:53:24;;;;;;;6.87;6.67;;;24.70;96.00;;;;;;3535414;40;20848;-61
2021/08/01 00:55:51;;;;;;;6.90;6.70;;;24.70;96.00;;;;;;3534334;40;20476;-61
2021/08/01 00:58:19;;;;;;;6.73;6.53;;;24.70;96.00;;;;;;3535859;40;20466;-60
2021/08/01 01:03:49;;;;;;;6.60;6.40;;;24.70;96.00;;;;;;3534015;40;20501;-61
2021/08/01 01:06:31;;;;;;;6.30;6.20;;;24.70;96.00;;;;;;3535992;40;20794;-61
2021/08/01 01:09:04;;;;;;;6.80;6.60;;;24.70;96.00;;;;;;3534721;40;20715;-61
2021/08/01 01:11:59;;;;;;;6.47;6.27;;;24.70;96.00;;;;;;3525097;40;20498;-61
2021/08/01 01:14:30;;;;;;;6.60;6.40;;;24.70;96.00;;;;;;3534898;40;20732;-61
2021/08/01 01:17:02;;;;;;;6.57;6.37;;;24.70;96.00;;;;;;3536721;40;20560;-61
2021/08/01 01:19:58;;;;;;;6.70;6.50;;;24.70;96.00;;;;;;3534806;40;20478;-61
2021/08/01 01:22:37;;;;;;;6.50;6.20;;;24.70;96.00;;;;;;3542937;40;20951;-61
2021/08/01 01:25:31;;;;;;;6.50;6.30;;;24.70;96.00;;;;;;3527901;40;20693;-61
2021/08/01 01:28:09;;;;;;;6.40;6.20;;;24.70;96.00;;;;;;3535393;40;20497;-61
2021/08/01 01:30:45;;;;;;;6.27;6.10;;;24.70;96.00;;;;;;3526285;40;20451;-61
2021/08/01 01:33:19;;;;;;;6.23;6.03;;;24.70;96.00;;;;;;3534765;40;20745;-61
2021/08/01 01:35:55;;;;;;;6.67;6.47;;;24.70;96.00;;;;;;3536127;40;20462;-61
2021/08/01 01:38:26;;;;;;;6.50;6.30;;;24.70;96.00;;;;;;3534720;40;20454;-61
2021/08/01 01:41:14;;;;;;;6.50;6.30;;;24.70;96.00;;;;;;3535649;40;20673;-61
2021/08/01 01:43:54;;;;;;;6.50;6.30;;;24.70;96.00;;;;;;3535471;40;20737;-61
2021/08/01 01:46:24;;;;;;;6.20;6.00;;;24.70;96.00;;;;;;3542502;40;20744;-61
2021/08/01 01:48:53;;;;;;;6.40;6.10;;;24.70;96.00;;;;;;3541969;40;20459;-61
2021/08/01 01:51:21;;;;;;;6.20;6.00;;;24.70;96.00;;;;;;3526116;40;20482;-61
2021/08/01 01:53:51;;;;;;;6.53;6.33;;;24.70;96.00;;;;;;3542292;40;20525;-61
2021/08/01 01:56:20;;;;;;;6.10;6.00;;;24.70;96.00;;;;;;3525962;40;20482;-61
2021/08/01 01:58:48;;;;;;;6.30;6.10;;;24.70;96.00;;;;;;3535210;40;20485;-61
2021/08/01 02:01:17;;;;;;;6.50;6.30;;;24.70;96.00;;;;;;3535053;40;20852;-61
2021/08/01 02:03:45;;;;;;;6.43;6.30;;;24.70;96.00;;;;;;3542575;40;20639;-61
2021/08/01 02:06:14;;;;;;;6.60;6.40;;;24.70;96.00;;;;;;3535185;40;20501;-61
2021/08/01 02:09:09;;;;;;;6.80;6.60;;;24.70;96.00;;;;;;3534999;40;20514;-61
2021/08/01 02:11:59;;;;;;;6.60;6.40;;;24.70;96.00;;;;;;3525335;40;20475;-60
2021/08/01 02:14:46;;;;;;;6.50;6.30;;;24.70;96.00;;;;;;3541495;40;20464;-60
2021/08/01 02:17:23;;;;;;;6.17;6.07;;;24.70;96.30;;;;;;3526461;40;20474;-61
2021/08/01 02:19:53;;;;;;;7.13;6.93;;;24.70;96.00;;;;;;3536087;40;20692;-61
2021/08/01 02:22:22;;;;;;;6.47;6.27;;;24.70;96.00;;;;;;3534879;40;20464;-61
2021/08/01 02:24:53;;;;;;;6.20;6.03;;;24.70;96.00;;;;;;3519326;40;20781;-61
2021/08/01 02:27:22;;;;;;;6.73;6.53;;;24.70;96.00;;;;;;3535099;40;20467;-61
2021/08/01 02:29:51;;;;;;;6.73;6.53;;;24.70;96.00;;;;;;3526565;40;20455;-60
2021/08/01 02:32:19;;;;;;;6.60;6.40;;;24.70;96.00;;;;;;3535372;40;20522;-61
2021/08/01 02:34:47;;;;;;;6.90;6.70;;;24.70;96.00;;;;;;3527177;40;20482;-61
2021/08/01 02:37:17;;;;;;;6.70;6.50;;;24.70;96.00;;;;;;3535208;40;20462;-61
2021/08/01 02:39:45;;;;;;;6.70;6.50;;;24.70;96.00;;;;;;3534335;40;20565;-61
2021/08/01 02:42:16;;;;;;;6.90;6.70;;;24.70;96.00;;;;;;3542892;40;20466;-61
2021/08/01 02:44:45;;;;;;;6.47;6.30;;;24.70;96.00;;;;;;3534646;40;20660;-61
2021/08/01 02:47:18;;;;;;;7.17;6.97;;;24.70;96.00;;;;;;3542884;40;20478;-61
2021/08/01 02:49:47;;;;;;;6.40;6.20;;;24.70;96.00;;;;;;3542259;40;20841;-61
2021/08/01 02:52:22;;;;;;;6.70;6.50;;;24.70;96.00;;;;;;3535776;40;20505;-61
2021/08/01 02:54:51;;;;;;;6.70;6.50;;;24.70;96.00;;;;;;3534570;40;20468;-61
2021/08/01 02:57:25;;;;;;;6.50;6.30;;;24.70;96.00;;;;;;3535303;40;20712;-61
2021/08/01 02:59:54;;;;;;;6.10;6.00;;;24.70;96.00;;;;;;3535589;40;20466;-61
2021/08/01 03:02:22;;;;;;;6.10;6.00;;;24.70;96.00;;;;;;3535283;40;20483;-61
2021/08/01 03:04:58;;;;;;;6.70;6.50;;;24.70;96.00;;;;;;3518075;40;20502;-61
2021/08/01 03:07:26;;;;;;;6.30;6.20;;;24.70;96.00;;;;;;3516537;40;20550;-61
2021/08/01 03:09:55;;;;;;;6.40;6.20;;;24.70;96.00;;;;;;3532540;40;20752;-61
2021/08/01 03:12:24;;;;;;;6.80;6.60;;;24.70;96.00;;;;;;3507680;40;21031;-61
2021/08/01 03:14:53;;;;;;;6.87;6.67;;;24.70;96.00;;;;;;3532653;40;20476;-61
2021/08/01 03:17:21;;;;;;;7.20;7.00;;;24.70;96.00;;;;;;3533223;40;20463;-61
2021/08/01 03:19:48;;;;;;;7.13;6.93;;;24.70;96.00;;;;;;3525818;40;20487;-61
2021/08/01 03:22:16;;;;;;;6.80;6.60;;;24.70;96.00;;;;;;3525036;40;20460;-61
2021/08/01 03:24:44;;;;;;;6.40;6.20;;;24.70;96.00;;;;;;3525244;40;20858;-61
2021/08/01 03:27:16;;;;;;;6.60;6.40;;;24.70;96.00;;;;;;3532811;40;20507;-61
2021/08/01 03:29:46;;;;;;;7.00;6.80;;;24.70;96.00;;;;;;3525707;40;20463;-61
2021/08/01 03:32:17;;;;;;;6.80;6.60;;;24.70;96.00;;;;;;3525283;40;20545;-61
2021/08/01 03:34:46;;;;;;;6.77;6.57;;;24.70;96.00;;;;;;3516215;40;20638;-61
2021/08/01 03:37:13;;;;;;;7.10;6.90;;;24.70;96.00;;;;;;3525749;40;20605;-61
2021/08/01 03:39:59;;;;;;;7.30;7.10;;;24.70;96.00;;;;;;3525693;40;20527;-61
2021/08/01 03:42:28;;;;;;;7.10;6.90;;;24.70;96.00;;;;;;3516894;40;20753;-61
2021/08/01 03:44:56;;;;;;;6.83;6.63;;;24.70;95.90;;;;;;3524589;40;20472;-60
2021/08/01 03:47:23;;;;;;;7.17;6.97;;;24.70;96.00;;;;;;3508520;40;20482;-61
2021/08/01 03:49:50;;;;;;;7.00;6.80;;;24.70;96.00;;;;;;3525638;40;20589;-61
2021/08/01 03:52:19;;;;;;;6.80;6.60;;;24.70;96.00;;;;;;3525150;40;20479;-61
2021/08/01 03:54:46;;;;;;;6.60;6.40;;;24.70;96.00;;;;;;3532639;40;20814;-61
2021/08/01 03:57:13;;;;;;;6.60;6.40;;;24.70;96.00;;;;;;3516300;40;20460;-61
2021/08/01 03:59:41;;;;;;;6.87;6.67;;;24.60;95.90;;;;;;3524565;40;20459;-61
2021/08/01 04:02:09;;;;;;;6.90;6.70;;;24.70;96.00;;;;;;3524342;40;20562;-61
2021/08/01 04:04:37;;;;;;;7.10;6.90;;;24.70;96.00;;;;;;3516240;40;20555;-61
2021/08/01 04:07:04;;;;;;;7.20;7.00;;;24.60;95.90;;;;;;3525523;40;20826;-61
2021/08/01 04:09:31;;;;;;;7.00;6.80;;;24.70;96.00;;;;;;3535010;40;20495;-61
2021/08/01 04:11:59;;;;;;;6.60;6.40;;;24.60;95.90;;;;;;3525645;40;20463;-61
2021/08/01 04:14:26;;;;;;;6.87;6.67;;;24.70;95.90;;;;;;3534992;40;20473;-60
2021/08/01 04:16:54;;;;;;;6.80;6.60;;;24.60;95.90;;;;;;3535019;40;20533;-61
2021/08/01 04:19:22;;;;;;;7.40;7.20;;;24.70;96.00;;;;;;3534946;40;20455;-61
2021/08/01 04:21:50;;;;;;;7.23;7.03;;;24.70;96.00;;;;;;3535347;40;20490;-61
2021/08/01 04:24:18;;;;;;;7.30;7.10;;;24.70;96.00;;;;;;3534915;40;20469;-61
2021/08/01 04:26:45;;;;;;;6.87;6.67;;;24.70;96.00;;;;;;3535012;40;20719;-61
2021/08/01 04:29:12;;;;;;;7.13;6.93;;;24.60;95.90;;;;;;3534156;40;20724;-61
2021/08/01 04:31:39;;;;;;;7.17;6.97;;;24.60;95.90;;;;;;3534179;40;20522;-61
2021/08/01 04:34:06;;;;;;;7.00;6.80;;;24.70;96.00;;;;;;3533810;40;20627;-61
2021/08/01 04:36:35;;;;;;;7.30;7.10;;;24.60;95.90;;;;;;3533443;40;20497;-61
2021/08/01 04:39:02;;;;;;;6.97;6.77;;;24.70;96.00;;;;;;3533806;40;20730;-61
2021/08/01 04:41:30;;;;;;;7.17;6.97;;;24.60;95.90;;;;;;3532729;40;20569;-61
2021/08/01 04:43:57;;;;;;;7.20;7.00;;;24.70;95.90;;;;;;3534228;40;20471;-61
2021/08/01 04:46:24;;;;;;;7.00;6.80;;;24.60;95.90;;;;;;3533623;40;20491;-61
2021/08/01 04:48:51;;;;;;;7.20;7.00;;;24.60;95.90;;;;;;3533595;40;20469;-61
2021/08/01 04:51:19;;;;;;;6.93;6.73;;;24.60;95.90;;;;;;3534200;40;20459;-61
2021/08/01 04:53:48;;;;;;;7.13;6.93;;;24.70;95.90;;;;;;3534350;40;20463;-61
2021/08/01 04:56:15;;;;;;;7.10;6.90;;;24.60;95.90;;;;;;3534533;40;20522;-61
2021/08/01 04:58:42;;;;;;;7.23;7.03;;;24.60;95.90;;;;;;3532978;40;20542;-61
2021/08/01 05:01:14;;;;;;;7.40;7.20;;;24.60;95.90;;;;;;3532597;40;20478;-61
2021/08/01 05:03:41;;;;;;;7.30;7.10;;;24.60;95.90;;;;;;3533869;40;20948;-61
2021/08/01 05:06:08;;;;;;;7.30;7.10;;;24.60;95.90;;;;;;3533585;40;20475;-61
2021/08/01 05:08:37;;;;;;;7.13;6.93;;;24.60;95.90;;;;;;3534364;40;20502;-61
2021/08/01 05:11:06;;;;;;;7.37;7.17;;;24.60;95.90;;;;;;3535340;40;20458;-61
2021/08/01 05:13:33;;;;;;;7.07;6.87;;;24.60;95.90;;;;;;3535163;40;20450;-61
2021/08/01 05:16:00;;;;;;;7.17;6.97;;;24.60;95.90;;;;;;3533936;40;20489;-61
2021/08/01 05:18:27;;;;;;;6.80;6.60;;;24.60;95.90;;;;;;3535374;40;20463;-61
2021/08/01 05:20:55;;;;;;;6.80;6.60;;;24.60;95.90;;;;;;3534820;40;20786;-61
2021/08/01 05:23:22;;;;;;;7.17;6.97;;;24.60;95.90;;;;;;3534662;40;20752;-61
2021/08/01 05:25:49;;;;;;;7.30;7.10;;;24.60;95.90;;;;;;3534509;40;20619;-61
2021/08/01 05:28:18;;;;;;;7.07;6.87;;;24.60;95.90;;;;;;3535221;40;20587;-61
2021/08/01 05:30:45;;;;;;;6.87;6.67;;;24.60;95.90;;;;;;3525441;40;20482;-61
2021/08/01 05:33:12;;;;;;;7.30;7.10;;;24.60;95.80;;;;;;3533374;40;20752;-61
2021/08/01 05:35:39;;;;;;;7.17;6.97;;;24.60;95.90;;;;;;3534676;40;20838;-61
2021/08/01 05:38:07;;;;;;;7.00;6.80;;;24.60;95.80;;;;;;3535185;40;20562;-61
2021/08/01 05:40:35;;;;;;;7.10;6.90;;;24.60;95.80;;;;;;3535193;40;20560;-61
2021/08/01 05:43:02;;;;;;;7.47;7.23;;;24.60;95.80;;;;;;3541882;40;20475;-61
2021/08/01 05:45:31;;;;;;;6.97;6.77;;;24.60;95.80;;;;;;3534240;40;20557;-61
2021/08/01 05:47:58;;;;;;;6.90;6.70;;;24.60;95.80;;;;;;3525102;40;20467;-61
2021/08/01 05:50:25;;;;;;;7.13;6.93;;;24.60;95.80;;;;;;3534857;40;20466;-61
2021/08/01 05:52:52;;;;;;;7.60;7.40;;;24.60;95.90;;;;;;3525996;40;20832;-61
2021/08/01 05:55:20;;;;;;;7.60;7.40;;;24.60;95.80;;;;;;3525075;40;20838;-61
2021/08/01 05:57:47;;;;;;;7.20;7.00;;;24.60;95.80;;;;;;3534051;40;20903;-61
2021/08/01 06:00:15;;;;;;;7.20;7.00;;;24.60;95.80;;;;;;3534292;40;20475;-61
2021/08/01 06:02:43;;;;;;;7.23;7.03;;;24.60;95.80;;;;;;3534298;40;20470;-61
2021/08/01 06:05:11;;;;;;;7.50;7.30;;;24.60;95.80;;;;;;3534271;40;20794;-61
2021/08/01 06:07:38;;;;;;;7.30;7.10;;;24.60;95.80;;;;;;3534208;40;20720;-61
2021/08/01 06:10:06;;;;;;;8.00;7.80;;;24.60;95.80;;;;;;3532903;40;20474;-60
2021/08/01 06:12:33;;;;;;;8.10;7.90;;;24.60;95.80;;;;;;3525246;40;20829;-61
2021/08/01 06:15:00;;;;;;;7.80;7.60;;;24.60;95.80;;;;;;3534593;40;20880;-60
2021/08/01 06:17:27;;;;;;;7.60;7.30;;;24.60;95.80;;;;;;3533376;40;20486;-61
2021/08/01 06:19:57;;;;;;;7.60;7.40;;;24.60;95.80;;;;;;3533827;40;20706;-60
2021/08/01 06:22:25;;;;;;;7.70;7.50;;;24.60;95.80;;;;;;3533569;40;20822;-61
2021/08/01 06:24:52;;;;;;;7.67;7.47;;;24.60;95.90;;;;;;3533458;40;20482;-61
2021/08/01 06:27:20;;;;;;;7.50;7.30;;;24.60;95.80;;;;;;3524820;40;20470;-61
2021/08/01 06:29:47;;;;;;;7.80;7.60;;;24.60;95.80;;;;;;3534116;40;20462;-61
2021/08/01 06:32:14;;;;;;;8.00;7.80;;;24.60;95.80;;;;;;3534344;40;20479;-61
2021/08/01 06:34:43;;;;;;;7.90;7.70;;;24.60;95.80;;;;;;3533882;40;20463;-61
2021/08/01 06:37:11;;;;;;;7.87;7.67;;;24.60;96.10;;;;;;3534225;40;20687;-61
2021/08/01 06:39:38;;;;;;;7.50;7.30;;;24.60;95.80;;;;;;3533015;40;20459;-61
2021/08/01 06:42:06;;;;;;;7.47;7.27;;;24.60;95.80;;;;;;3534126;40;20572;-61
2021/08/01 06:44:34;;;;;;;8.10;7.90;;;24.60;95.90;;;;;;3533609;40;20477;-61
2021/08/01 06:47:01;;;;;;;8.23;8.03;;;24.60;95.80;;;;;;3534363;40;20447;-61
2021/08/01 06:49:29;;;;;;;8.13;7.93;;;24.60;95.80;;;;;;3533165;40;20751;-61
2021/08/01 06:51:56;;;;;;;7.93;7.73;;;24.60;95.80;;;;;;3533543;40;20490;-61
2021/08/01 06:54:25;;;;;;;8.30;8.10;;;24.60;95.80;;;;;;3534024;40;20784;-61
2021/08/01 06:56:52;;;;;;;7.80;7.60;;;24.60;95.80;;;;;;3524134;40;20616;-61
2021/08/01 06:59:19;;;;;;;7.90;7.70;;;24.60;95.90;;;;;;3532019;40;20972;-61
2021/08/01 07:01:46;;;;;;;8.10;7.90;;;24.60;95.80;;;;;;3524482;40;21052;-60
2021/08/01 07:04:13;;;;;;;8.20;8.00;;;24.60;95.80;;;;;;3524662;40;20504;-61
2021/08/01 07:06:41;;;;;;;8.27;8.07;;;24.60;95.80;;;;;;3533237;40;20466;-61
2021/08/01 07:09:08;;;;;;;7.93;7.73;;;24.60;95.80;;;;;;3532960;40;20507;-61
2021/08/01 07:11:36;;;;;;;8.03;7.83;;;24.60;95.80;;;;;;3533078;40;20685;-61
2021/08/01 07:14:04;;;;;;;7.97;7.77;;;24.60;95.80;;;;;;3533589;40;20474;-61
2021/08/01 07:16:31;;;;;;;7.50;7.30;;;24.60;95.80;;;;;;3534027;40;20553;-61
2021/08/01 07:18:58;;;;;;;8.30;8.00;;;24.60;95.80;;;;;;3532844;40;20462;-61
2021/08/01 07:21:25;;;;;;;8.00;7.80;;;24.60;95.80;;;;;;3532997;40;21051;-61
2021/08/01 07:23:59;;;;;;;8.37;8.17;;;24.60;95.80;;;;;;3533271;40;20506;-61
2021/08/01 07:26:26;;;;;;;8.10;7.90;;;24.60;95.80;;;;;;3534249;40;20509;-61
2021/08/01 07:28:54;;;;;;;8.40;8.20;;;24.60;95.80;;;;;;3534397;40;20633;-61
2021/08/01 07:31:21;;;;;;;8.37;8.17;;;24.60;95.80;;;;;;3534336;40;20791;-61
2021/08/01 07:33:49;;;;;;;7.40;7.20;;;24.60;95.80;;;;;;3534089;40;20560;-61
2021/08/01 07:36:16;;;;;;;8.00;7.80;;;24.60;95.80;;;;;;3532224;40;20487;-61
2021/08/01 07:38:44;;;;;;;7.90;7.70;;;24.60;95.80;;;;;;3532649;40;20738;-61
2021/08/01 07:41:11;;;;;;;7.50;7.30;;;24.60;95.80;;;;;;3532211;40;20665;-61
2021/08/01 07:43:40;;;;;;;8.10;7.90;;;24.60;95.80;;;;;;3533047;40;20556;-61
2021/08/01 07:46:09;;;;;;;7.50;7.30;;;24.60;95.80;;;;;;3532340;40;20518;-61
2021/08/01 07:48:36;;;;;;;7.70;7.50;;;24.60;95.80;;;;;;3530855;40;20628;-61
2021/08/01 07:51:03;;;;;;;7.67;7.47;;;24.60;96.10;;;;;;3532223;40;20557;-61
2021/08/01 07:53:31;;;;;;;7.97;7.77;;;24.60;95.80;;;;;;3533501;40;20466;-61
2021/08/01 07:55:58;;;;;;;7.97;7.77;;;24.60;95.80;;;;;;3532485;40;20585;-60
2021/08/01 07:58:25;;;;;;;8.00;7.80;;;24.60;95.80;;;;;;3533123;40;20475;-61
2021/08/01 08:00:52;;;;;;;7.30;7.10;;;24.60;95.80;;;;;;3533502;40;20470;-61
2021/08/01 08:03:23;;;;;;;7.33;7.13;;;24.60;95.80;;;;;;3532837;40;20459;-61
2021/08/01 08:05:51;;;;;;;7.90;7.70;;;24.60;95.80;;;;;;3532438;40;20458;-61
2021/08/01 08:08:19;;;;;;;7.83;7.63;;;24.60;95.80;;;;;;3531978;40;20692;-61
2021/08/01 08:10:46;;;;;;;7.60;7.40;;;24.60;95.80;;;;;;3531834;40;20576;-60
2021/08/01 08:13:13;;;;;;;7.80;7.60;;;24.60;95.80;;;;;;3532188;40;20459;-60
2021/08/01 08:15:40;;;;;;;7.80;7.60;;;24.60;95.80;;;;;;3522263;40;20980;-61
2021/08/01 08:18:07;;;;;;;7.70;7.50;;;24.60;95.80;;;;;;3522903;40;20513;-61
2021/08/01 08:20:36;;;;;;;7.43;7.23;;;24.60;95.80;;;;;;3532282;40;20515;-61
2021/08/01 08:23:05;;;;;;;7.80;7.60;;;24.60;95.80;;;;;;3532599;40;21174;-61
2021/08/01 08:25:33;;;;;;;7.63;7.43;;;24.60;95.80;;;;;;3522678;40;20995;-61
2021/08/01 08:28:01;;;;;;;8.00;7.80;;;24.60;95.80;;;;;;3531629;40;20896;-61
2021/08/01 08:30:29;;;;;;;7.53;7.33;;;24.60;95.80;;;;;;3532065;40;20477;-60
2021/08/01 08:32:57;;;;;;;8.30;8.10;;;24.60;95.80;;;;;;3531516;40;20557;-61
2021/08/01 08:35:24;;;;;;;8.90;8.53;;;24.60;95.80;;;;;;3531283;40;20815;-61
2021/08/01 08:37:53;;;;;;;7.90;7.70;;;24.60;95.80;;;;;;3532788;40;20625;-61
2021/08/01 08:40:21;;;;;;;7.33;7.13;;;24.60;95.80;;;;;;3533258;40;20705;-61
2021/08/01 08:42:51;;;;;;;7.60;7.40;;;24.60;95.80;;;;;;3532711;40;20463;-61
2021/08/01 08:45:18;;;;;;;8.40;8.20;;;24.60;95.80;;;;;;3534793;40;20500;-61
2021/08/01 08:47:47;;;;;;;8.43;8.23;;;24.60;95.80;;;;;;3532694;40;20585;-61
2021/08/01 08:50:16;;;;;;;8.30;8.00;;;24.60;95.80;;;;;;3532921;40;20707;-61
2021/08/01 08:52:45;;;;;;;8.27;8.07;;;24.60;95.80;;;;;;3533391;40;20485;-61
2021/08/01 08:55:16;;;;;;;8.13;7.93;;;24.60;95.80;;;;;;3533576;40;20462;-60
2021/08/01 08:57:47;;;;;;;7.83;7.63;;;24.60;95.80;;;;;;3532363;40;20547;-61
2021/08/01 09:00:15;;;;;;;7.93;7.73;;;24.60;95.80;;;;;;3532914;40;21137;-61
2021/08/01 09:02:44;;;;;;;8.20;8.00;;;24.60;95.80;;;;;;3534089;40;20561;-61
2021/08/01 09:05:12;;;;;;;8.47;8.17;;;24.60;95.80;;;;;;3533233;40;20466;-61
2021/08/01 09:07:41;;;;;;;8.40;8.20;;;24.60;95.70;;;;;;3532811;40;20490;-61
2021/08/01 09:10:10;;;;;;;7.97;7.77;;;24.60;95.80;;;;;;3532366;40;20869;-61
2021/08/01 09:12:46;;;;;;;8.07;7.87;;;24.60;95.80;;;;;;3532155;40;20735;-61
2021/08/01 09:15:16;;;;;;;7.67;7.47;;;24.60;95.80;;;;;;3533140;40;20474;-61
2021/08/01 09:17:44;;;;;;;8.07;7.87;;;24.60;95.80;;;;;;3533183;40;20545;-62
2021/08/01 09:20:17;;;;;;;7.67;7.47;;;24.60;95.80;;;;;;3535675;40;20471;-61
2021/08/01 09:23:08;;;;;;;8.10;7.90;;;24.60;95.80;;;;;;3537005;40;20567;-61
2021/08/01 09:25:37;;;;;;;8.07;7.87;;;24.60;95.80;;;;;;3527667;40;20526;-61
2021/08/01 09:28:14;;;;;;;7.50;7.30;;;24.60;95.80;;;;;;3526113;40;20452;-61
2021/08/01 09:30:47;;;;;;;7.40;7.20;;;24.60;95.80;;;;;;3526000;40;20471;-61
2021/08/01 09:33:18;;;;;;;7.10;6.90;;;24.60;95.80;;;;;;3526371;40;20455;-61
2021/08/01 09:35:46;;;;;;;7.27;7.07;;;24.60;95.80;;;;;;3518671;40;20471;-61
2021/08/01 09:38:14;;;;;;;7.33;7.13;;;24.60;95.80;;;;;;3535311;40;20466;-61
2021/08/01 09:40:42;;;;;;;7.43;7.23;;;24.60;95.80;;;;;;3534140;40;20535;-61
2021/08/01 09:43:12;;;;;;;7.10;6.90;;;24.60;95.80;;;;;;3535843;40;20511;-61
2021/08/01 09:45:40;;;;;;;7.30;7.10;;;24.60;95.80;;;;;;3534607;40;20482;-61
2021/08/01 09:48:18;;;;;;;7.20;7.00;;;24.60;95.80;;;;;;3535197;40;20562;-61
2021/08/01 09:51:00;;;;;;;7.40;7.20;;;24.60;95.80;;;;;;3525150;40;20478;-61
2021/08/01 09:53:29;;;;;;;7.10;6.90;;;24.60;95.80;;;;;;3533984;40;21174;-61
2021/08/01 09:56:16;;;;;;;7.73;7.53;;;24.60;95.80;;;;;;3525431;40;20465;-61
2021/08/01 09:58:46;;;;;;;7.80;7.60;;;24.60;95.80;;;;;;3529717;40;20957;-61
2021/08/01 10:01:14;;;;;;;8.00;7.70;;;24.60;95.80;;;;;;3533289;40;20473;-60
2021/08/01 10:03:42;;;;;;;7.70;7.50;;;24.60;95.80;;;;;;3525218;40;20717;-61
2021/08/01 10:06:11;;;;;;;7.13;6.93;;;24.60;95.80;;;;;;3533101;40;20652;-61
2021/08/01 10:08:42;;;;;;;6.80;6.60;;;24.60;95.80;;;;;;3534491;40;20565;-61
2021/08/01 10:11:11;;;;;;;7.20;7.00;;;24.60;95.80;;;;;;3534836;40;20714;-61
2021/08/01 10:13:39;;;;;;;7.17;6.97;;;24.60;95.80;;;;;;3525225;40;20458;-61
2021/08/01 10:16:10;;;;;;;7.37;7.17;;;24.60;95.80;;;;;;3524750;40;20490;-61
2021/08/01 10:18:38;;;;;;;7.20;7.00;;;24.60;95.80;;;;;;3525408;40;20467;-62
2021/08/01 10:21:06;;;;;;;6.67;6.47;;;24.60;95.80;;;;;;3525428;40;20562;-61
2021/08/01 10:23:39;;;;;;;6.90;6.70;;;24.60;95.80;;;;;;3533999;40;20479;-61
2021/08/01 10:26:08;;;;;;;7.03;6.83;;;24.60;95.80;;;;;;3524870;40;20796;-61
2021/08/01 10:28:40;;;;;;;6.80;6.60;;;24.60;95.80;;;;;;3534579;40;20463;-61
2021/08/01 10:31:12;;;;;;;6.83;6.63;;;24.60;95.80;;;;;;3534460;40;20470;-61
2021/08/01 10:33:52;;;;;;;7.40;7.20;;;24.60;95.80;;;;;;3534216;40;20464;-61
2021/08/01 10:36:26;;;;;;;6.90;6.70;;;24.60;95.80;;;;;;3534930;40;20831;-61
2021/08/01 10:38:55;;;;;;;6.90;6.70;;;24.60;95.80;;;;;;3533107;40;20470;-61
2021/08/01 10:41:24;;;;;;;6.97;6.77;;;24.60;95.80;;;;;;3534025;40;21230;-61
2021/08/01 10:43:53;;;;;;;7.50;7.30;;;24.60;95.80;;;;;;3535225;40;20462;-61
2021/08/01 10:46:22;;;;;;;7.60;7.40;;;24.60;95.80;;;;;;3524872;40;20478;-61
2021/08/01 10:48:50;;;;;;;7.43;7.23;;;24.60;95.80;;;;;;3534342;40;20947;-60
2021/08/01 10:51:17;;;;;;;7.57;7.37;;;24.60;95.80;;;;;;3525152;40;20539;-62
2021/08/01 10:53:44;;;;;;;7.60;7.40;;;24.60;95.80;;;;;;3534784;40;20469;-60
2021/08/01 10:56:32;;;;;;;7.47;7.27;;;24.60;95.80;;;;;;3533826;40;20873;-62
2021/08/01 10:59:00;;;;;;;7.17;6.97;;;24.60;95.80;;;;;;3534715;40;20463;-63
2021/08/01 11:01:28;;;;;;;7.60;7.40;;;24.60;95.80;;;;;;3534869;40;20805;-62
2021/08/01 11:04:32;;;;;;;7.30;7.10;;;24.60;95.80;;;;;;3534301;40;20463;-61
2021/08/01 11:07:00;;;;;;;7.30;7.10;;;24.60;95.80;;;;;;3531678;40;20474;-62
2021/08/01 11:09:27;;;;;;;7.30;7.10;;;24.60;95.80;;;;;;3529012;40;20498;-62
2021/08/01 11:12:29;;;;;;;7.20;7.00;;;24.60;95.80;;;;;;3531410;40;20510;-62
2021/08/01 11:14:57;;;;;;;7.50;7.30;;;24.60;95.80;;;;;;3522369;40;20498;-62
2021/08/01 11:18:02;;;;;;;7.40;7.20;;;24.60;95.80;;;;;;3532121;40;20693;-62
2021/08/01 11:20:50;;;;;;;7.90;7.70;;;24.60;95.80;;;;;;3532094;40;20487;-61
2021/08/01 11:23:17;;;;;;;9.00;8.80;;;24.60;95.80;;;;;;3532084;40;20455;-62
2021/08/01 11:26:11;;;;;;;9.53;9.23;;;24.60;95.80;;;;;;3532420;40;20521;-62
2021/08/01 11:28:39;;;;;;;8.03;7.83;;;24.60;95.80;;;;;;3530600;40;20496;-62
2021/08/01 11:31:25;;;;;;;7.97;7.77;;;24.60;95.80;;;;;;3532545;40;20471;-62
2021/08/01 11:33:54;;;;;;;7.60;7.40;;;24.60;95.80;;;;;;3531724;40;20904;-61
2021/08/01 11:36:30;;;;;;;7.70;7.47;;;24.60;95.80;;;;;;3531904;40;20483;-62
2021/08/01 11:39:06;;;;;;;7.73;7.43;;;24.60;95.80;;;;;;3530493;40;20692;-62
2021/08/01 11:41:42;;;;;;;8.90;8.60;;;24.60;95.80;;;;;;3532059;40;20473;-61
2021/08/01 11:44:18;;;;;;;7.90;7.70;;;24.60;95.80;;;;;;3530812;40;20446;-62
2021/08/01 11:47:02;;;;;;;7.60;7.40;;;24.60;95.80;;;;;;3531192;40;20573;-62
2021/08/01 11:49:34;;;;;;;7.53;7.33;;;24.60;95.80;;;;;;3532585;40;20518;-61
2021/08/01 11:52:05;;;;;;;7.70;7.50;;;24.60;95.80;;;;;;3530898;40;20553;-62
2021/08/01 11:54:33;;;;;;;7.57;7.37;;;24.60;95.80;;;;;;3532298;40;20857;-62
2021/08/01 11:57:03;;;;;;;7.03;6.83;;;24.60;95.80;;;;;;3523582;40;20475;-60
2021/08/01 11:59:30;;;;;;;7.30;7.10;;;24.60;95.80;;;;;;3533234;40;20838;-62
2021/08/01 12:01:59;;;;;;;7.40;7.20;;;24.60;95.80;;;;;;3532411;40;20467;-62
2021/08/01 12:04:28;;;;;;;7.70;7.50;;;24.60;95.80;;;;;;3532837;40;20755;-62
2021/08/01 12:06:57;;;;;;;7.50;7.30;;;24.60;95.80;;;;;;3531115;40;20479;-62
2021/08/01 12:09:27;;;;;;;7.23;7.03;;;24.60;95.80;;;;;;3530707;40;20835;-61
2021/08/01 12:11:56;;;;;;;7.50;7.30;;;24.60;95.80;;;;;;3530465;40;20546;-62
2021/08/01 12:14:24;;;;;;;7.50;7.30;;;24.60;95.80;;;;;;3523038;40;20486;-62
2021/08/01 12:16:54;;;;;;;8.20;8.00;;;24.60;95.80;;;;;;3531714;40;20668;-61
2021/08/01 12:19:22;;;;;;;7.67;7.47;;;24.60;95.80;;;;;;3532380;40;20486;-62
2021/08/01 12:21:52;;;;;;;7.53;7.33;;;24.60;95.80;;;;;;3523787;40;20514;-62
2021/08/01 12:24:34;;;;;;;7.50;7.30;;;24.60;95.80;;;;;;3523525;40;20439;-62
2021/08/01 12:27:03;;;;;;;7.40;7.20;;;24.60;95.90;;;;;;3523759;40;20533;-62
2021/08/01 12:29:33;;;;;;;6.83;6.63;;;24.60;95.80;;;;;;3531402;40;20520;-61
2021/08/01 12:32:02;;;;;;;7.20;7.00;;;24.60;95.80;;;;;;3533369;40;20552;-61
2021/08/01 12:34:29;;;;;;;7.30;7.10;;;24.60;95.80;;;;;;3517421;40;21018;-61
2021/08/01 12:36:57;;;;;;;7.30;7.10;;;24.60;95.70;;;;;;3532873;40;20474;-61
2021/08/01 12:39:24;;;;;;;7.50;7.30;;;24.60;95.80;;;;;;3531741;40;20554;-61
2021/08/01 12:42:01;;;;;;;7.50;7.30;;;24.60;95.80;;;;;;3523664;40;20479;-61
2021/08/01 12:44:28;;;;;;;7.30;7.10;;;24.60;95.80;;;;;;3532192;40;20664;-62
2021/08/01 12:47:06;;;;;;;7.03;6.83;;;24.60;95.80;;;;;;3523552;40;20565;-61
2021/08/01 12:49:34;;;;;;;6.90;6.70;;;24.60;95.80;;;;;;3523852;40;20494;-61
2021/08/01 12:52:02;;;;;;;7.70;7.50;;;24.60;95.80;;;;;;3533396;40;20475;-61
2021/08/01 12:54:30;;;;;;;7.30;7.10;;;24.60;95.80;;;;;;3524557;40;20459;-62
2021/08/01 12:57:06;;;;;;;7.60;7.40;;;24.60;95.80;;;;;;3534294;40;20661;-62
2021/08/01 12:59:33;;;;;;;7.20;7.00;;;24.60;95.80;;;;;;3533464;40;20779;-62
2021/08/01 13:02:01;;;;;;;7.20;7.00;;;24.60;95.80;;;;;;3533365;40;20881;-61
2021/08/01 13:04:40;;;;;;;7.07;6.87;;;24.60;95.80;;;;;;3523882;40;20490;-62
2021/08/01 13:07:07;;;;;;;6.70;6.50;;;24.60;95.80;;;;;;3514748;40;20528;-62